sensor_id;sensor_type;location;lat;lon;timestamp;P1;durP1;ratioP1;P2;durP2;ratioP2
18142;SDS011;9197;50.930;3.140;2023-03-21T00:00:31;13.47;;;8.87;;
18142;SDS011;9197;50.930;3.140;2023-03-21T00:02:58;16.77;;;9.10;;
18142;SDS011;9197;50.930;3.140;2023-03-21T00:05:25;13.07;;;8.60;;
18142;SDS011;9197;50.930;3.140;2023-03-21T00:07:53;14.90;;;8.13;;
18142;SDS011;9197;50.930;3.140;2023-03-21T00:10:20;15.13;;;8.83;;
18142;SDS011;9197;50.930;3.140;2023-03-21T00:12:48;13.77;;;8.90;;
18142;SDS011;9197;50.930;3.140;2023-03-21T00:15:24;12.73;;;9.20;;
18142;SDS011;9197;50.930;3.140;2023-03-21T00:17:53;10.50;;;8.10;;
18142;SDS011;9197;50.930;3.140;2023-03-21T00:20:22;13.87;;;10.20;;
18142;SDS011;9197;50.930;3.140;2023-03-21T00:22:49;14.07;;;8.90;;
18142;SDS011;9197;50.930;3.140;2023-03-21T00:25:17;14.90;;;9.50;;
18142;SDS011;9197;50.930;3.140;2023-03-21T00:27:44;14.80;;;8.93;;
18142;SDS011;9197;50.930;3.140;2023-03-21T00:30:12;10.23;;;8.17;;
18142;SDS011;9197;50.930;3.140;2023-03-21T00:32:41;15.47;;;8.90;;
18142;SDS011;9197;50.930;3.140;2023-03-21T00:35:09;18.13;;;9.50;;
18142;SDS011;9197;50.930;3.140;2023-03-21T00:37:36;13.70;;;9.07;;
18142;SDS011;9197;50.930;3.140;2023-03-21T00:40:04;10.93;;;8.80;;
18142;SDS011;9197;50.930;3.140;2023-03-21T00:42:33;12.40;;;10.13;;
18142;SDS011;9197;50.930;3.140;2023-03-21T00:45:01;13.30;;;9.13;;
18142;SDS011;9197;50.930;3.140;2023-03-21T00:47:28;10.73;;;8.57;;
18142;SDS011;9197;50.930;3.140;2023-03-21T00:49:57;17.43;;;10.10;;
18142;SDS011;9197;50.930;3.140;2023-03-21T00:52:24;17.50;;;10.20;;
18142;SDS011;9197;50.930;3.140;2023-03-21T00:54:52;16.13;;;10.30;;
18142;SDS011;9197;50.930;3.140;2023-03-21T00:57:19;11.93;;;9.63;;
18142;SDS011;9197;50.930;3.140;2023-03-21T00:59:46;21.00;;;10.43;;
18142;SDS011;9197;50.930;3.140;2023-03-21T01:02:13;13.20;;;9.50;;
18142;SDS011;9197;50.930;3.140;2023-03-21T01:04:50;17.37;;;9.80;;
18142;SDS011;9197;50.930;3.140;2023-03-21T01:07:19;17.13;;;10.30;;
18142;SDS011;9197;50.930;3.140;2023-03-21T01:09:46;15.53;;;10.17;;
18142;SDS011;9197;50.930;3.140;2023-03-21T01:12:14;15.93;;;10.63;;
18142;SDS011;9197;50.930;3.140;2023-03-21T01:14:42;14.57;;;10.03;;
18142;SDS011;9197;50.930;3.140;2023-03-21T01:17:09;17.17;;;11.00;;
18142;SDS011;9197;50.930;3.140;2023-03-21T01:19:37;16.27;;;10.63;;
18142;SDS011;9197;50.930;3.140;2023-03-21T01:22:04;18.30;;;10.80;;
18142;SDS011;9197;50.930;3.140;2023-03-21T01:24:33;21.40;;;12.30;;
18142;SDS011;9197;50.930;3.140;2023-03-21T01:27:00;17.47;;;11.17;;
18142;SDS011;9197;50.930;3.140;2023-03-21T01:29:28;14.93;;;10.60;;
18142;SDS011;9197;50.930;3.140;2023-03-21T01:31:55;16.63;;;10.50;;
18142;SDS011;9197;50.930;3.140;2023-03-21T01:34:23;16.97;;;11.40;;
18142;SDS011;9197;50.930;3.140;2023-03-21T01:36:50;14.37;;;10.40;;
18142;SDS011;9197;50.930;3.140;2023-03-21T01:39:17;13.70;;;9.83;;
18142;SDS011;9197;50.930;3.140;2023-03-21T01:41:47;13.87;;;10.07;;
18142;SDS011;9197;50.930;3.140;2023-03-21T01:44:14;13.40;;;9.67;;
18142;SDS011;9197;50.930;3.140;2023-03-21T01:46:42;13.60;;;10.07;;
18142;SDS011;9197;50.930;3.140;2023-03-21T01:49:12;16.57;;;10.00;;
18142;SDS011;9197;50.930;3.140;2023-03-21T01:51:41;15.90;;;10.73;;
18142;SDS011;9197;50.930;3.140;2023-03-21T01:54:11;14.80;;;10.10;;
18142;SDS011;9197;50.930;3.140;2023-03-21T01:56:40;19.97;;;10.57;;
18142;SDS011;9197;50.930;3.140;2023-03-21T01:59:12;11.67;;;9.23;;
18142;SDS011;9197;50.930;3.140;2023-03-21T02:01:41;15.57;;;9.50;;
18142;SDS011;9197;50.930;3.140;2023-03-21T02:04:09;13.20;;;9.87;;
18142;SDS011;9197;50.930;3.140;2023-03-21T02:06:39;16.87;;;9.00;;
18142;SDS011;9197;50.930;3.140;2023-03-21T02:09:08;16.17;;;8.83;;
18142;SDS011;9197;50.930;3.140;2023-03-21T02:11:37;15.13;;;8.30;;
18142;SDS011;9197;50.930;3.140;2023-03-21T02:14:05;13.83;;;8.73;;
18142;SDS011;9197;50.930;3.140;2023-03-21T02:16:40;10.23;;;8.03;;
18142;SDS011;9197;50.930;3.140;2023-03-21T02:24:59;15.03;;;8.50;;
18142;SDS011;9197;50.930;3.140;2023-03-21T02:27:33;18.33;;;9.10;;
18142;SDS011;9197;50.930;3.140;2023-03-21T02:32:54;12.00;;;7.90;;
18142;SDS011;9197;50.930;3.140;2023-03-21T02:35:29;14.93;;;8.03;;
18142;SDS011;9197;50.930;3.140;2023-03-21T02:38:02;13.03;;;7.53;;
18142;SDS011;9197;50.930;3.140;2023-03-21T02:40:31;13.97;;;9.03;;
18142;SDS011;9197;50.930;3.140;2023-03-21T02:43:01;12.83;;;7.53;;
18142;SDS011;9197;50.930;3.140;2023-03-21T02:45:31;14.97;;;9.47;;
18142;SDS011;9197;50.930;3.140;2023-03-21T02:48:02;14.77;;;8.73;;
18142;SDS011;9197;50.930;3.140;2023-03-21T02:50:31;15.10;;;8.60;;
18142;SDS011;9197;50.930;3.140;2023-03-21T02:53:03;13.57;;;7.53;;
18142;SDS011;9197;50.930;3.140;2023-03-21T02:55:31;15.07;;;8.43;;
18142;SDS011;9197;50.930;3.140;2023-03-21T02:57:59;11.77;;;7.17;;
18142;SDS011;9197;50.930;3.140;2023-03-21T03:00:28;10.83;;;7.33;;
18142;SDS011;9197;50.930;3.140;2023-03-21T03:02:56;14.33;;;8.03;;
18142;SDS011;9197;50.930;3.140;2023-03-21T03:05:25;15.23;;;7.53;;
18142;SDS011;9197;50.930;3.140;2023-03-21T03:07:55;19.83;;;8.43;;
18142;SDS011;9197;50.930;3.140;2023-03-21T03:10:30;13.07;;;7.10;;
18142;SDS011;9197;50.930;3.140;2023-03-21T03:13:00;14.27;;;8.13;;
18142;SDS011;9197;50.930;3.140;2023-03-21T03:15:32;12.30;;;7.07;;
18142;SDS011;9197;50.930;3.140;2023-03-21T03:18:05;12.07;;;7.60;;
18142;SDS011;9197;50.930;3.140;2023-03-21T03:20:38;13.47;;;6.90;;
18142;SDS011;9197;50.930;3.140;2023-03-21T03:23:12;16.67;;;6.90;;
18142;SDS011;9197;50.930;3.140;2023-03-21T03:25:45;10.17;;;6.60;;
18142;SDS011;9197;50.930;3.140;2023-03-21T03:28:14;15.03;;;6.27;;
18142;SDS011;9197;50.930;3.140;2023-03-21T03:30:42;12.07;;;7.13;;
18142;SDS011;9197;50.930;3.140;2023-03-21T03:33:10;13.17;;;6.40;;
18142;SDS011;9197;50.930;3.140;2023-03-21T03:35:41;9.23;;;5.97;;
18142;SDS011;9197;50.930;3.140;2023-03-21T03:38:09;13.97;;;6.87;;
18142;SDS011;9197;50.930;3.140;2023-03-21T03:40:38;14.13;;;6.60;;
18142;SDS011;9197;50.930;3.140;2023-03-21T03:43:09;15.27;;;6.00;;
18142;SDS011;9197;50.930;3.140;2023-03-21T03:45:39;12.60;;;5.87;;
18142;SDS011;9197;50.930;3.140;2023-03-21T03:48:12;9.33;;;5.80;;
18142;SDS011;9197;50.930;3.140;2023-03-21T03:50:42;11.43;;;6.70;;
18142;SDS011;9197;50.930;3.140;2023-03-21T03:53:14;13.23;;;7.03;;
18142;SDS011;9197;50.930;3.140;2023-03-21T03:55:43;11.37;;;6.63;;
18142;SDS011;9197;50.930;3.140;2023-03-21T03:58:12;14.07;;;7.30;;
18142;SDS011;9197;50.930;3.140;2023-03-21T04:00:43;15.13;;;6.67;;
18142;SDS011;9197;50.930;3.140;2023-03-21T04:03:10;13.67;;;7.73;;
18142;SDS011;9197;50.930;3.140;2023-03-21T04:05:38;16.77;;;8.63;;
18142;SDS011;9197;50.930;3.140;2023-03-21T04:08:06;10.37;;;7.33;;
18142;SDS011;9197;50.930;3.140;2023-03-21T04:10:33;14.43;;;6.30;;
18142;SDS011;9197;50.930;3.140;2023-03-21T04:13:01;15.37;;;7.30;;
18142;SDS011;9197;50.930;3.140;2023-03-21T04:15:29;9.90;;;5.87;;
18142;SDS011;9197;50.930;3.140;2023-03-21T04:17:57;12.97;;;7.37;;
18142;SDS011;9197;50.930;3.140;2023-03-21T04:20:24;13.10;;;7.00;;
18142;SDS011;9197;50.930;3.140;2023-03-21T04:22:51;13.10;;;7.73;;
18142;SDS011;9197;50.930;3.140;2023-03-21T04:25:20;14.83;;;7.57;;
18142;SDS011;9197;50.930;3.140;2023-03-21T04:27:48;12.70;;;7.43;;
18142;SDS011;9197;50.930;3.140;2023-03-21T04:30:15;20.37;;;7.33;;
18142;SDS011;9197;50.930;3.140;2023-03-21T04:32:45;10.17;;;6.87;;
18142;SDS011;9197;50.930;3.140;2023-03-21T04:35:18;12.70;;;7.53;;
18142;SDS011;9197;50.930;3.140;2023-03-21T04:37:45;16.90;;;7.63;;
18142;SDS011;9197;50.930;3.140;2023-03-21T04:40:13;11.43;;;7.40;;
18142;SDS011;9197;50.930;3.140;2023-03-21T04:42:43;13.30;;;8.87;;
18142;SDS011;9197;50.930;3.140;2023-03-21T04:45:10;14.53;;;8.73;;
18142;SDS011;9197;50.930;3.140;2023-03-21T04:47:38;12.97;;;9.37;;
18142;SDS011;9197;50.930;3.140;2023-03-21T04:50:08;13.90;;;9.80;;
18142;SDS011;9197;50.930;3.140;2023-03-21T04:52:37;16.60;;;10.00;;
18142;SDS011;9197;50.930;3.140;2023-03-21T04:55:04;17.00;;;9.97;;
18142;SDS011;9197;50.930;3.140;2023-03-21T04:57:34;21.37;;;10.80;;
18142;SDS011;9197;50.930;3.140;2023-03-21T05:00:02;18.47;;;11.00;;
18142;SDS011;9197;50.930;3.140;2023-03-21T05:02:31;13.73;;;9.43;;
18142;SDS011;9197;50.930;3.140;2023-03-21T05:04:58;20.10;;;10.97;;
18142;SDS011;9197;50.930;3.140;2023-03-21T05:07:27;17.50;;;10.83;;
18142;SDS011;9197;50.930;3.140;2023-03-21T05:09:56;19.07;;;10.43;;
18142;SDS011;9197;50.930;3.140;2023-03-21T05:12:24;15.83;;;10.40;;
18142;SDS011;9197;50.930;3.140;2023-03-21T05:14:51;16.77;;;9.77;;
18142;SDS011;9197;50.930;3.140;2023-03-21T05:17:19;18.07;;;11.30;;
18142;SDS011;9197;50.930;3.140;2023-03-21T05:19:49;19.10;;;10.20;;
18142;SDS011;9197;50.930;3.140;2023-03-21T05:22:17;20.70;;;11.73;;
18142;SDS011;9197;50.930;3.140;2023-03-21T05:24:46;22.83;;;11.17;;
18142;SDS011;9197;50.930;3.140;2023-03-21T05:27:14;16.67;;;10.90;;
18142;SDS011;9197;50.930;3.140;2023-03-21T05:29:58;22.23;;;12.13;;
18142;SDS011;9197;50.930;3.140;2023-03-21T05:32:25;19.17;;;11.10;;
18142;SDS011;9197;50.930;3.140;2023-03-21T05:34:52;21.47;;;13.17;;
18142;SDS011;9197;50.930;3.140;2023-03-21T05:37:20;20.27;;;12.00;;
18142;SDS011;9197;50.930;3.140;2023-03-21T05:39:49;17.93;;;12.93;;
18142;SDS011;9197;50.930;3.140;2023-03-21T05:42:16;20.27;;;12.17;;
18142;SDS011;9197;50.930;3.140;2023-03-21T05:44:44;20.73;;;12.43;;
18142;SDS011;9197;50.930;3.140;2023-03-21T05:47:11;20.13;;;12.83;;
18142;SDS011;9197;50.930;3.140;2023-03-21T05:49:38;25.20;;;13.47;;
18142;SDS011;9197;50.930;3.140;2023-03-21T05:52:06;24.37;;;14.93;;
18142;SDS011;9197;50.930;3.140;2023-03-21T05:54:33;25.43;;;14.23;;
18142;SDS011;9197;50.930;3.140;2023-03-21T05:57:02;25.67;;;15.30;;
18142;SDS011;9197;50.930;3.140;2023-03-21T05:59:30;19.57;;;15.20;;
18142;SDS011;9197;50.930;3.140;2023-03-21T06:01:57;19.47;;;14.60;;
18142;SDS011;9197;50.930;3.140;2023-03-21T06:04:25;21.43;;;15.07;;
18142;SDS011;9197;50.930;3.140;2023-03-21T06:06:52;21.40;;;15.60;;
18142;SDS011;9197;50.930;3.140;2023-03-21T06:09:19;23.90;;;15.77;;
18142;SDS011;9197;50.930;3.140;2023-03-21T06:11:47;24.17;;;15.47;;
18142;SDS011;9197;50.930;3.140;2023-03-21T06:14:17;24.40;;;15.17;;
18142;SDS011;9197;50.930;3.140;2023-03-21T06:16:45;27.13;;;17.10;;
18142;SDS011;9197;50.930;3.140;2023-03-21T06:19:12;25.60;;;15.63;;
18142;SDS011;9197;50.930;3.140;2023-03-21T06:21:40;24.23;;;15.13;;
18142;SDS011;9197;50.930;3.140;2023-03-21T06:24:07;27.83;;;15.30;;
18142;SDS011;9197;50.930;3.140;2023-03-21T06:26:34;23.90;;;16.13;;
18142;SDS011;9197;50.930;3.140;2023-03-21T06:29:02;23.37;;;15.60;;
18142;SDS011;9197;50.930;3.140;2023-03-21T06:31:31;29.20;;;16.87;;
18142;SDS011;9197;50.930;3.140;2023-03-21T06:33:58;24.90;;;15.50;;
18142;SDS011;9197;50.930;3.140;2023-03-21T06:36:25;26.17;;;15.23;;
18142;SDS011;9197;50.930;3.140;2023-03-21T06:38:53;22.40;;;14.90;;
18142;SDS011;9197;50.930;3.140;2023-03-21T06:41:21;25.27;;;14.20;;
18142;SDS011;9197;50.930;3.140;2023-03-21T06:43:48;22.73;;;15.70;;
18142;SDS011;9197;50.930;3.140;2023-03-21T06:46:15;20.00;;;14.40;;
18142;SDS011;9197;50.930;3.140;2023-03-21T06:48:45;23.87;;;15.17;;
18142;SDS011;9197;50.930;3.140;2023-03-21T06:51:12;21.43;;;14.53;;
18142;SDS011;9197;50.930;3.140;2023-03-21T06:53:40;19.40;;;13.60;;
18142;SDS011;9197;50.930;3.140;2023-03-21T06:56:09;25.47;;;14.20;;
18142;SDS011;9197;50.930;3.140;2023-03-21T06:58:36;21.70;;;14.43;;
18142;SDS011;9197;50.930;3.140;2023-03-21T07:01:04;26.10;;;14.43;;
18142;SDS011;9197;50.930;3.140;2023-03-21T07:03:32;22.33;;;14.80;;
18142;SDS011;9197;50.930;3.140;2023-03-21T07:06:04;16.63;;;12.90;;
18142;SDS011;9197;50.930;3.140;2023-03-21T07:08:32;20.50;;;13.87;;
18142;SDS011;9197;50.930;3.140;2023-03-21T07:11:01;18.03;;;12.83;;
18142;SDS011;9197;50.930;3.140;2023-03-21T07:13:28;22.77;;;14.20;;
18142;SDS011;9197;50.930;3.140;2023-03-21T07:15:55;26.37;;;14.57;;
18142;SDS011;9197;50.930;3.140;2023-03-21T07:18:23;17.00;;;12.07;;
18142;SDS011;9197;50.930;3.140;2023-03-21T07:20:50;16.03;;;11.77;;
18142;SDS011;9197;50.930;3.140;2023-03-21T07:23:19;20.23;;;13.40;;
18142;SDS011;9197;50.930;3.140;2023-03-21T07:25:47;25.47;;;13.73;;
18142;SDS011;9197;50.930;3.140;2023-03-21T07:28:14;18.33;;;11.67;;
18142;SDS011;9197;50.930;3.140;2023-03-21T07:30:42;22.70;;;12.43;;
18142;SDS011;9197;50.930;3.140;2023-03-21T07:33:10;16.90;;;11.83;;
18142;SDS011;9197;50.930;3.140;2023-03-21T07:35:37;16.97;;;10.60;;
18142;SDS011;9197;50.930;3.140;2023-03-21T07:38:05;16.50;;;11.50;;
18142;SDS011;9197;50.930;3.140;2023-03-21T07:40:33;20.90;;;11.80;;
18142;SDS011;9197;50.930;3.140;2023-03-21T07:43:01;16.93;;;11.03;;
18142;SDS011;9197;50.930;3.140;2023-03-21T07:45:28;14.50;;;11.00;;
18142;SDS011;9197;50.930;3.140;2023-03-21T07:47:55;21.00;;;10.57;;
18142;SDS011;9197;50.930;3.140;2023-03-21T07:50:22;14.23;;;9.57;;
18142;SDS011;9197;50.930;3.140;2023-03-21T07:52:50;18.73;;;10.03;;
18142;SDS011;9197;50.930;3.140;2023-03-21T07:55:18;15.67;;;9.03;;
18142;SDS011;9197;50.930;3.140;2023-03-21T07:57:46;11.97;;;8.77;;
18142;SDS011;9197;50.930;3.140;2023-03-21T08:00:16;12.23;;;8.80;;
18142;SDS011;9197;50.930;3.140;2023-03-21T08:02:47;15.37;;;9.53;;
18142;SDS011;9197;50.930;3.140;2023-03-21T08:05:18;14.67;;;8.70;;
18142;SDS011;9197;50.930;3.140;2023-03-21T08:07:45;14.47;;;8.70;;
18142;SDS011;9197;50.930;3.140;2023-03-21T08:10:13;17.13;;;8.27;;
18142;SDS011;9197;50.930;3.140;2023-03-21T08:12:41;18.33;;;8.43;;
18142;SDS011;9197;50.930;3.140;2023-03-21T08:15:10;19.50;;;8.70;;
18142;SDS011;9197;50.930;3.140;2023-03-21T08:17:38;15.63;;;8.60;;
18142;SDS011;9197;50.930;3.140;2023-03-21T08:20:06;14.73;;;8.90;;
18142;SDS011;9197;50.930;3.140;2023-03-21T08:22:34;17.57;;;8.00;;
18142;SDS011;9197;50.930;3.140;2023-03-21T08:25:02;9.30;;;7.50;;
18142;SDS011;9197;50.930;3.140;2023-03-21T08:27:29;13.53;;;8.10;;
18142;SDS011;9197;50.930;3.140;2023-03-21T08:29:57;13.17;;;7.57;;
18142;SDS011;9197;50.930;3.140;2023-03-21T08:32:26;9.87;;;8.23;;
18142;SDS011;9197;50.930;3.140;2023-03-21T08:34:57;14.40;;;8.10;;
18142;SDS011;9197;50.930;3.140;2023-03-21T08:37:25;15.40;;;7.63;;
18142;SDS011;9197;50.930;3.140;2023-03-21T08:39:52;12.20;;;7.43;;
18142;SDS011;9197;50.930;3.140;2023-03-21T08:42:20;9.97;;;7.80;;
18142;SDS011;9197;50.930;3.140;2023-03-21T08:44:47;13.30;;;7.47;;
18142;SDS011;9197;50.930;3.140;2023-03-21T08:47:15;11.93;;;7.57;;
18142;SDS011;9197;50.930;3.140;2023-03-21T08:49:43;16.07;;;8.27;;
18142;SDS011;9197;50.930;3.140;2023-03-21T08:52:11;10.60;;;6.93;;
18142;SDS011;9197;50.930;3.140;2023-03-21T08:54:38;12.93;;;6.57;;
18142;SDS011;9197;50.930;3.140;2023-03-21T08:57:06;9.97;;;6.60;;
18142;SDS011;9197;50.930;3.140;2023-03-21T08:59:35;9.13;;;6.20;;
18142;SDS011;9197;50.930;3.140;2023-03-21T09:02:02;13.47;;;6.77;;
18142;SDS011;9197;50.930;3.140;2023-03-21T09:04:30;15.90;;;8.13;;
18142;SDS011;9197;50.930;3.140;2023-03-21T09:06:59;9.80;;;6.30;;
18142;SDS011;9197;50.930;3.140;2023-03-21T09:09:29;14.00;;;6.83;;
18142;SDS011;9197;50.930;3.140;2023-03-21T09:11:56;11.47;;;6.60;;
18142;SDS011;9197;50.930;3.140;2023-03-21T09:14:23;11.27;;;6.50;;
18142;SDS011;9197;50.930;3.140;2023-03-21T09:16:50;12.33;;;6.83;;
18142;SDS011;9197;50.930;3.140;2023-03-21T09:19:18;9.33;;;5.93;;
18142;SDS011;9197;50.930;3.140;2023-03-21T09:21:45;9.13;;;6.93;;
18142;SDS011;9197;50.930;3.140;2023-03-21T09:24:14;12.33;;;5.60;;
18142;SDS011;9197;50.930;3.140;2023-03-21T09:26:42;10.13;;;6.53;;
18142;SDS011;9197;50.930;3.140;2023-03-21T09:29:09;17.07;;;6.47;;
18142;SDS011;9197;50.930;3.140;2023-03-21T09:31:37;11.23;;;6.23;;
18142;SDS011;9197;50.930;3.140;2023-03-21T09:34:04;8.17;;;5.37;;
18142;SDS011;9197;50.930;3.140;2023-03-21T09:36:32;9.30;;;5.70;;
18142;SDS011;9197;50.930;3.140;2023-03-21T09:39:00;8.60;;;5.97;;
18142;SDS011;9197;50.930;3.140;2023-03-21T09:41:37;11.13;;;6.17;;
18142;SDS011;9197;50.930;3.140;2023-03-21T09:44:12;9.10;;;6.17;;
18142;SDS011;9197;50.930;3.140;2023-03-21T09:46:44;10.00;;;5.33;;
18142;SDS011;9197;50.930;3.140;2023-03-21T09:49:14;9.63;;;5.00;;
18142;SDS011;9197;50.930;3.140;2023-03-21T09:51:43;11.33;;;5.50;;
18142;SDS011;9197;50.930;3.140;2023-03-21T09:54:16;7.63;;;4.77;;
18142;SDS011;9197;50.930;3.140;2023-03-21T09:56:45;9.43;;;4.83;;
18142;SDS011;9197;50.930;3.140;2023-03-21T09:59:18;10.90;;;4.80;;
18142;SDS011;9197;50.930;3.140;2023-03-21T10:01:45;8.83;;;4.77;;
18142;SDS011;9197;50.930;3.140;2023-03-21T10:04:15;10.03;;;4.37;;
18142;SDS011;9197;50.930;3.140;2023-03-21T10:06:46;6.50;;;4.70;;
18142;SDS011;9197;50.930;3.140;2023-03-21T10:09:16;12.70;;;4.40;;
18142;SDS011;9197;50.930;3.140;2023-03-21T10:11:47;11.07;;;5.00;;
18142;SDS011;9197;50.930;3.140;2023-03-21T10:14:17;9.73;;;4.23;;
18142;SDS011;9197;50.930;3.140;2023-03-21T10:16:46;7.40;;;4.47;;
18142;SDS011;9197;50.930;3.140;2023-03-21T10:19:15;8.03;;;4.27;;
18142;SDS011;9197;50.930;3.140;2023-03-21T10:21:44;7.00;;;4.67;;
18142;SDS011;9197;50.930;3.140;2023-03-21T10:24:13;6.93;;;4.10;;
18142;SDS011;9197;50.930;3.140;2023-03-21T10:26:41;8.87;;;4.23;;
18142;SDS011;9197;50.930;3.140;2023-03-21T10:29:10;5.97;;;4.03;;
18142;SDS011;9197;50.930;3.140;2023-03-21T10:31:38;8.33;;;3.90;;
18142;SDS011;9197;50.930;3.140;2023-03-21T10:34:08;7.40;;;4.03;;
18142;SDS011;9197;50.930;3.140;2023-03-21T10:36:38;7.63;;;3.67;;
18142;SDS011;9197;50.930;3.140;2023-03-21T10:39:06;7.93;;;5.00;;
18142;SDS011;9197;50.930;3.140;2023-03-21T10:41:34;10.77;;;4.40;;
18142;SDS011;9197;50.930;3.140;2023-03-21T10:44:03;7.67;;;4.17;;
18142;SDS011;9197;50.930;3.140;2023-03-21T10:46:32;5.20;;;3.90;;
18142;SDS011;9197;50.930;3.140;2023-03-21T10:49:00;9.93;;;3.87;;
18142;SDS011;9197;50.930;3.140;2023-03-21T10:51:29;9.37;;;4.20;;
18142;SDS011;9197;50.930;3.140;2023-03-21T10:53:57;6.43;;;3.83;;
18142;SDS011;9197;50.930;3.140;2023-03-21T10:56:25;9.80;;;4.53;;
18142;SDS011;9197;50.930;3.140;2023-03-21T10:58:54;4.83;;;4.27;;
18142;SDS011;9197;50.930;3.140;2023-03-21T11:01:25;7.20;;;3.80;;
18142;SDS011;9197;50.930;3.140;2023-03-21T11:03:56;10.30;;;4.47;;
18142;SDS011;9197;50.930;3.140;2023-03-21T11:06:26;9.53;;;4.20;;
18142;SDS011;9197;50.930;3.140;2023-03-21T11:08:55;8.57;;;4.43;;
18142;SDS011;9197;50.930;3.140;2023-03-21T11:11:23;5.63;;;4.17;;
18142;SDS011;9197;50.930;3.140;2023-03-21T11:13:55;14.03;;;4.70;;
18142;SDS011;9197;50.930;3.140;2023-03-21T11:16:23;8.37;;;4.60;;
18142;SDS011;9197;50.930;3.140;2023-03-21T11:18:55;8.47;;;4.20;;
18142;SDS011;9197;50.930;3.140;2023-03-21T11:21:24;10.97;;;4.67;;
18142;SDS011;9197;50.930;3.140;2023-03-21T11:23:53;9.60;;;4.60;;
18142;SDS011;9197;50.930;3.140;2023-03-21T11:26:21;8.53;;;3.90;;
18142;SDS011;9197;50.930;3.140;2023-03-21T11:28:51;10.33;;;4.90;;
18142;SDS011;9197;50.930;3.140;2023-03-21T11:31:19;8.17;;;4.10;;
18142;SDS011;9197;50.930;3.140;2023-03-21T11:33:49;7.13;;;4.47;;
18142;SDS011;9197;50.930;3.140;2023-03-21T11:36:30;8.40;;;4.47;;
18142;SDS011;9197;50.930;3.140;2023-03-21T11:39:01;8.53;;;4.73;;
18142;SDS011;9197;50.930;3.140;2023-03-21T11:41:30;7.67;;;4.30;;
18142;SDS011;9197;50.930;3.140;2023-03-21T11:43:58;8.57;;;4.80;;
18142;SDS011;9197;50.930;3.140;2023-03-21T11:46:26;9.80;;;5.17;;
18142;SDS011;9197;50.930;3.140;2023-03-21T11:48:54;8.40;;;5.37;;
18142;SDS011;9197;50.930;3.140;2023-03-21T11:51:23;9.10;;;6.10;;
18142;SDS011;9197;50.930;3.140;2023-03-21T11:53:57;9.27;;;5.77;;
18142;SDS011;9197;50.930;3.140;2023-03-21T11:56:26;10.10;;;5.57;;
18142;SDS011;9197;50.930;3.140;2023-03-21T11:59:00;8.37;;;6.60;;
18142;SDS011;9197;50.930;3.140;2023-03-21T12:01:33;6.27;;;4.87;;
18142;SDS011;9197;50.930;3.140;2023-03-21T12:04:06;6.77;;;5.57;;
18142;SDS011;9197;50.930;3.140;2023-03-21T12:06:37;10.40;;;5.20;;
18142;SDS011;9197;50.930;3.140;2023-03-21T12:09:15;11.57;;;5.67;;
18142;SDS011;9197;50.930;3.140;2023-03-21T12:11:49;9.27;;;5.43;;
18142;SDS011;9197;50.930;3.140;2023-03-21T12:14:20;12.40;;;5.33;;
18142;SDS011;9197;50.930;3.140;2023-03-21T12:16:52;7.37;;;4.43;;
18142;SDS011;9197;50.930;3.140;2023-03-21T12:19:28;6.80;;;4.20;;
18142;SDS011;9197;50.930;3.140;2023-03-21T12:22:00;4.57;;;3.53;;
18142;SDS011;9197;50.930;3.140;2023-03-21T12:24:32;6.53;;;4.03;;
18142;SDS011;9197;50.930;3.140;2023-03-21T12:27:03;4.43;;;3.03;;
18142;SDS011;9197;50.930;3.140;2023-03-21T12:29:35;3.87;;;2.87;;
18142;SDS011;9197;50.930;3.140;2023-03-21T12:32:09;3.33;;;2.60;;
18142;SDS011;9197;50.930;3.140;2023-03-21T12:37:26;5.13;;;3.10;;
18142;SDS011;9197;50.930;3.140;2023-03-21T12:40:01;4.20;;;2.30;;
18142;SDS011;9197;50.930;3.140;2023-03-21T12:42:50;3.03;;;2.00;;
18142;SDS011;9197;50.930;3.140;2023-03-21T12:45:21;3.50;;;2.33;;
18142;SDS011;9197;50.930;3.140;2023-03-21T12:47:51;2.33;;;2.10;;
18142;SDS011;9197;50.930;3.140;2023-03-21T12:50:21;3.37;;;2.60;;
18142;SDS011;9197;50.930;3.140;2023-03-21T12:52:50;3.73;;;2.07;;
18142;SDS011;9197;50.930;3.140;2023-03-21T12:55:20;2.27;;;2.07;;
18142;SDS011;9197;50.930;3.140;2023-03-21T12:57:48;2.17;;;1.77;;
18142;SDS011;9197;50.930;3.140;2023-03-21T13:00:19;2.23;;;1.90;;
18142;SDS011;9197;50.930;3.140;2023-03-21T13:02:48;3.80;;;2.10;;
18142;SDS011;9197;50.930;3.140;2023-03-21T13:05:17;2.47;;;2.10;;
18142;SDS011;9197;50.930;3.140;2023-03-21T13:07:46;2.77;;;2.13;;
18142;SDS011;9197;50.930;3.140;2023-03-21T13:10:17;4.87;;;2.50;;
18142;SDS011;9197;50.930;3.140;2023-03-21T13:12:49;2.47;;;2.27;;
18142;SDS011;9197;50.930;3.140;2023-03-21T13:15:28;2.97;;;2.30;;
18142;SDS011;9197;50.930;3.140;2023-03-21T13:18:00;3.53;;;2.10;;
18142;SDS011;9197;50.930;3.140;2023-03-21T13:20:29;6.03;;;2.10;;
18142;SDS011;9197;50.930;3.140;2023-03-21T13:22:59;4.17;;;2.60;;
18142;SDS011;9197;50.930;3.140;2023-03-21T13:25:28;5.57;;;1.93;;
18142;SDS011;9197;50.930;3.140;2023-03-21T13:28:01;4.10;;;2.03;;
18142;SDS011;9197;50.930;3.140;2023-03-21T13:30:29;4.80;;;1.93;;
18142;SDS011;9197;50.930;3.140;2023-03-21T13:33:02;6.07;;;2.60;;
18142;SDS011;9197;50.930;3.140;2023-03-21T13:35:34;2.47;;;2.17;;
18142;SDS011;9197;50.930;3.140;2023-03-21T13:38:03;3.03;;;2.63;;
18142;SDS011;9197;50.930;3.140;2023-03-21T13:40:34;2.97;;;2.33;;
18142;SDS011;9197;50.930;3.140;2023-03-21T13:43:04;4.57;;;2.07;;
18142;SDS011;9197;50.930;3.140;2023-03-21T13:45:32;3.97;;;2.03;;
18142;SDS011;9197;50.930;3.140;2023-03-21T13:48:02;3.97;;;2.20;;
18142;SDS011;9197;50.930;3.140;2023-03-21T13:50:33;3.20;;;1.80;;
18142;SDS011;9197;50.930;3.140;2023-03-21T13:58:50;3.40;;;2.10;;
18142;SDS011;9197;50.930;3.140;2023-03-21T14:01:25;2.37;;;1.90;;
18142;SDS011;9197;50.930;3.140;2023-03-21T14:04:01;1.57;;;1.40;;
18142;SDS011;9197;50.930;3.140;2023-03-21T14:06:31;10.07;;;2.53;;
18142;SDS011;9197;50.930;3.140;2023-03-21T14:08:59;3.03;;;1.43;;
18142;SDS011;9197;50.930;3.140;2023-03-21T14:11:27;2.90;;;1.33;;
18142;SDS011;9197;50.930;3.140;2023-03-21T14:13:57;4.63;;;2.03;;
18142;SDS011;9197;50.930;3.140;2023-03-21T14:16:25;3.53;;;2.67;;
18142;SDS011;9197;50.930;3.140;2023-03-21T14:18:54;4.77;;;2.40;;
18142;SDS011;9197;50.930;3.140;2023-03-21T14:21:23;4.10;;;1.80;;
18142;SDS011;9197;50.930;3.140;2023-03-21T14:23:58;2.63;;;2.10;;
18142;SDS011;9197;50.930;3.140;2023-03-21T14:26:26;3.50;;;2.40;;
18142;SDS011;9197;50.930;3.140;2023-03-21T14:28:56;4.67;;;2.10;;
18142;SDS011;9197;50.930;3.140;2023-03-21T14:31:24;4.07;;;2.43;;
18142;SDS011;9197;50.930;3.140;2023-03-21T14:33:54;4.33;;;1.93;;
18142;SDS011;9197;50.930;3.140;2023-03-21T14:36:23;2.57;;;1.77;;
18142;SDS011;9197;50.930;3.140;2023-03-21T14:39:01;3.67;;;1.90;;
18142;SDS011;9197;50.930;3.140;2023-03-21T14:41:29;2.20;;;1.60;;
18142;SDS011;9197;50.930;3.140;2023-03-21T14:44:01;1.80;;;1.40;;
18142;SDS011;9197;50.930;3.140;2023-03-21T14:46:29;5.97;;;2.33;;
18142;SDS011;9197;50.930;3.140;2023-03-21T14:49:08;3.07;;;1.67;;
18142;SDS011;9197;50.930;3.140;2023-03-21T14:51:36;2.80;;;1.60;;
18142;SDS011;9197;50.930;3.140;2023-03-21T14:54:05;2.80;;;1.40;;
18142;SDS011;9197;50.930;3.140;2023-03-21T14:56:32;3.73;;;2.17;;
18142;SDS011;9197;50.930;3.140;2023-03-21T14:59:03;1.83;;;1.37;;
18142;SDS011;9197;50.930;3.140;2023-03-21T15:01:31;3.53;;;1.63;;
18142;SDS011;9197;50.930;3.140;2023-03-21T15:04:00;3.77;;;2.10;;
18142;SDS011;9197;50.930;3.140;2023-03-21T15:06:29;4.93;;;1.80;;
18142;SDS011;9197;50.930;3.140;2023-03-21T15:08:57;5.07;;;1.97;;
18142;SDS011;9197;50.930;3.140;2023-03-21T15:11:28;3.77;;;2.00;;
18142;SDS011;9197;50.930;3.140;2023-03-21T15:13:56;6.17;;;2.27;;
18142;SDS011;9197;50.930;3.140;2023-03-21T15:16:26;3.50;;;2.00;;